VLK596 UHWW-UHHH
Flight info
| Callsign | VLK596 |
|---|---|
| Flight time | 1h 0m |
| Altitude | 37000 |
| Route | DOLMA2R DOLMA B356 TD B355 ARDEL ARDEL5A |
| Aircraft | T154/M-SDFIRWY/S |
Departure
| Time | 2026-05-07 22:25 |
|---|---|
| Airport | Vladivostok International Airport (UHWW) |
Arrival
| Time | 2026-05-07 23:26 |
|---|---|
| Airport | Khabarovsk Novy Airport (UHHH) |
| Time | Latitude | Longitude | Altitude | Speed | Heading |
|---|---|---|---|---|---|
| 2026-05-07 22:08 | 43.39854 | 132.16344 | 61 ft | 0 kts | 151° |
| 2026-05-07 22:21 | 43.39852 | 132.16345 | 61 ft | 1 kts | 151° |
| 2026-05-07 22:21 | 43.39821 | 132.16371 | 62 ft | 8 kts | 141° |
| 2026-05-07 22:21 | 43.39809 | 132.16431 | 61 ft | 9 kts | 75° |
| 2026-05-07 22:22 | 43.39852 | 132.16547 | 56 ft | 17 kts | 59° |
| 2026-05-07 22:22 | 43.39923 | 132.16708 | 52 ft | 21 kts | 59° |
| 2026-05-07 22:22 | 43.40010 | 132.16907 | 47 ft | 26 kts | 59° |
| 2026-05-07 22:22 | 43.40089 | 132.17076 | 45 ft | 6 kts | 23° |
| 2026-05-07 22:23 | 43.40139 | 132.17064 | 44 ft | 8 kts | 329° |
| 2026-05-07 22:23 | 43.40202 | 132.17013 | 44 ft | 12 kts | 330° |
| 2026-05-07 22:23 | 43.40288 | 132.16952 | 42 ft | 15 kts | 332° |
| 2026-05-07 22:23 | 43.40396 | 132.16875 | 41 ft | 19 kts | 333° |
| 2026-05-07 22:24 | 43.40434 | 132.16805 | 41 ft | 8 kts | 259° |
| 2026-05-07 22:24 | 43.40413 | 132.16748 | 41 ft | 0 kts | 241° |
| 2026-05-07 22:25 | 43.40342 | 132.16566 | 42 ft | 67 kts | 242° |
| 2026-05-07 22:25 | 43.39959 | 132.15626 | 61 ft | 155 kts | 241° |
| 2026-05-07 22:25 | 43.39340 | 132.14084 | 366 ft | 199 kts | 242° |
| 2026-05-07 22:25 | 43.38675 | 132.12390 | 1214 ft | 210 kts | 244° |
| 2026-05-07 22:26 | 43.37971 | 132.10504 | 1904 ft | 236 kts | 246° |
| 2026-05-07 22:26 | 43.37206 | 132.08273 | 2208 ft | 276 kts | 248° |
| 2026-05-07 22:26 | 43.36498 | 132.06058 | 3156 ft | 239 kts | 250° |
| 2026-05-07 22:26 | 43.35803 | 132.03832 | 3680 ft | 260 kts | 250° |
| 2026-05-07 22:27 | 43.35107 | 132.01573 | 4305 ft | 264 kts | 250° |
| 2026-05-07 22:27 | 43.34657 | 131.99199 | 4920 ft | 255 kts | 277° |
| 2026-05-07 22:27 | 43.35076 | 131.96962 | 5547 ft | 238 kts | 310° |
| 2026-05-07 22:27 | 43.36211 | 131.95459 | 6227 ft | 219 kts | 343° |
| 2026-05-07 22:28 | 43.37667 | 131.95113 | 6916 ft | 210 kts | 16° |
| 2026-05-07 22:28 | 43.38927 | 131.95953 | 7653 ft | 210 kts | 45° |
| 2026-05-07 22:28 | 43.39629 | 131.97691 | 8438 ft | 219 kts | 77° |
| 2026-05-07 22:28 | 43.39582 | 131.99762 | 9260 ft | 226 kts | 95° |
| 2026-05-07 22:29 | 43.39405 | 132.01881 | 10108 ft | 225 kts | 89° |
| 2026-05-07 22:29 | 43.39326 | 132.04062 | 10893 ft | 238 kts | 92° |
| 2026-05-07 22:29 | 43.39078 | 132.06404 | 11705 ft | 261 kts | 101° |
| 2026-05-07 22:29 | 43.38804 | 132.08900 | 12536 ft | 278 kts | 84° |
| 2026-05-07 22:30 | 43.39260 | 132.11533 | 13507 ft | 291 kts | 70° |
| 2026-05-07 22:30 | 43.39997 | 132.14153 | 14507 ft | 303 kts | 69° |
| 2026-05-07 22:30 | 43.41043 | 132.16695 | 15516 ft | 315 kts | 49° |
| 2026-05-07 22:30 | 43.42786 | 132.18545 | 16451 ft | 330 kts | 27° |
| 2026-05-07 22:31 | 43.45058 | 132.19634 | 16886 ft | 356 kts | 14° |
| 2026-05-07 22:31 | 43.47471 | 132.20540 | 17423 ft | 366 kts | 25° |
| 2026-05-07 22:31 | 43.49658 | 132.22308 | 18017 ft | 372 kts | 36° |
| 2026-05-07 22:31 | 43.51639 | 132.24658 | 18698 ft | 375 kts | 47° |
| 2026-05-07 22:32 | 43.53358 | 132.27248 | 19864 ft | 365 kts | 50° |
| 2026-05-07 22:32 | 43.54989 | 132.29843 | 20940 ft | 358 kts | 50° |
| 2026-05-07 22:32 | 43.56710 | 132.32369 | 21544 ft | 365 kts | 44° |
| 2026-05-07 22:32 | 43.58652 | 132.34668 | 22177 ft | 371 kts | 38° |
| 2026-05-07 22:33 | 43.60737 | 132.36772 | 22857 ft | 375 kts | 36° |
| 2026-05-07 22:33 | 43.62851 | 132.38860 | 23568 ft | 378 kts | 37° |
| 2026-05-07 22:33 | 43.64954 | 132.41075 | 24209 ft | 382 kts | 39° |
| 2026-05-07 22:33 | 43.67038 | 132.43422 | 24756 ft | 388 kts | 40° |
| 2026-05-07 22:34 | 43.69104 | 132.45804 | 25230 ft | 395 kts | 40° |
| 2026-05-07 22:34 | 43.71225 | 132.48236 | 25792 ft | 401 kts | 39° |
| 2026-05-07 22:34 | 43.73411 | 132.50700 | 26385 ft | 408 kts | 39° |
| 2026-05-07 22:34 | 43.75631 | 132.53177 | 26916 ft | 415 kts | 39° |
| 2026-05-07 22:35 | 43.77883 | 132.55681 | 27540 ft | 420 kts | 39° |
| 2026-05-07 22:35 | 43.80191 | 132.58250 | 28079 ft | 427 kts | 39° |
| 2026-05-07 22:35 | 43.82501 | 132.60832 | 28579 ft | 433 kts | 39° |
| 2026-05-07 22:35 | 43.84846 | 132.63458 | 28943 ft | 440 kts | 39° |
| 2026-05-07 22:36 | 43.87255 | 132.66162 | 29344 ft | 447 kts | 40° |
| 2026-05-07 22:36 | 43.89673 | 132.68930 | 29799 ft | 453 kts | 40° |
| 2026-05-07 22:36 | 43.92083 | 132.71797 | 30170 ft | 459 kts | 42° |
| 2026-05-07 22:36 | 43.94439 | 132.74756 | 30547 ft | 465 kts | 43° |
| 2026-05-07 22:37 | 43.96831 | 132.77806 | 30981 ft | 467 kts | 43° |
| 2026-05-07 22:37 | 43.98192 | 132.79556 | 31200 ft | 469 kts | 44° |
| 2026-05-07 22:37 | 44.00548 | 132.82680 | 31424 ft | 473 kts | 45° |
| 2026-05-07 22:37 | 44.02897 | 132.85904 | 31669 ft | 481 kts | 46° |
| 2026-05-07 22:38 | 44.05263 | 132.89227 | 32043 ft | 482 kts | 46° |
| 2026-05-07 22:38 | 44.07581 | 132.92534 | 32428 ft | 484 kts | 46° |
| 2026-05-07 22:38 | 44.09938 | 132.95924 | 32679 ft | 488 kts | 46° |
| 2026-05-07 22:38 | 44.12293 | 132.99400 | 32839 ft | 494 kts | 48° |
| 2026-05-07 22:39 | 44.14643 | 133.02940 | 33070 ft | 499 kts | 48° |
| 2026-05-07 22:39 | 44.16956 | 133.06456 | 33399 ft | 499 kts | 48° |
| 2026-05-07 22:39 | 44.19276 | 133.10062 | 33686 ft | 501 kts | 49° |
| 2026-05-07 22:39 | 44.21565 | 133.13747 | 34027 ft | 502 kts | 50° |
| 2026-05-07 22:40 | 44.23836 | 133.17445 | 34179 ft | 507 kts | 50° |
| 2026-05-07 22:40 | 44.26154 | 133.21213 | 34529 ft | 508 kts | 47° |
| 2026-05-07 22:40 | 44.28751 | 133.24568 | 34795 ft | 510 kts | 38° |
| 2026-05-07 22:40 | 44.31532 | 133.27570 | 35074 ft | 511 kts | 35° |
| 2026-05-07 22:41 | 44.34430 | 133.30542 | 35310 ft | 515 kts | 34° |
| 2026-05-07 22:41 | 44.37322 | 133.33470 | 35619 ft | 515 kts | 34° |
| 2026-05-07 22:41 | 44.40218 | 133.36383 | 35974 ft | 513 kts | 34° |
| 2026-05-07 22:41 | 44.43131 | 133.39311 | 36203 ft | 515 kts | 34° |
| 2026-05-07 22:42 | 44.46051 | 133.42256 | 36351 ft | 520 kts | 34° |
| 2026-05-07 22:42 | 44.48950 | 133.45184 | 36528 ft | 521 kts | 34° |
| 2026-05-07 22:42 | 44.51918 | 133.48183 | 36748 ft | 523 kts | 34° |
| 2026-05-07 22:43 | 44.57832 | 133.54094 | 36735 ft | 524 kts | 32° |
| 2026-05-07 22:43 | 44.63872 | 133.59827 | 36714 ft | 524 kts | 31° |
| 2026-05-07 22:44 | 44.69939 | 133.65427 | 36717 ft | 523 kts | 32° |
| 2026-05-07 22:44 | 44.76024 | 133.71053 | 36690 ft | 524 kts | 32° |
| 2026-05-07 22:45 | 44.82081 | 133.76671 | 36693 ft | 523 kts | 32° |
| 2026-05-07 22:45 | 44.88148 | 133.82315 | 36726 ft | 522 kts | 32° |
| 2026-05-07 22:46 | 44.94194 | 133.87955 | 36715 ft | 523 kts | 32° |
| 2026-05-07 22:46 | 45.00244 | 133.93600 | 36737 ft | 519 kts | 32° |
| 2026-05-07 22:47 | 45.06276 | 133.99231 | 36730 ft | 519 kts | 32° |
| 2026-05-07 22:47 | 45.12289 | 134.04901 | 36701 ft | 522 kts | 34° |
| 2026-05-07 22:48 | 45.18116 | 134.11066 | 36691 ft | 525 kts | 36° |
| 2026-05-07 22:48 | 45.23883 | 134.17386 | 36725 ft | 523 kts | 36° |
| 2026-05-07 22:49 | 45.29623 | 134.23726 | 36732 ft | 525 kts | 37° |
| 2026-05-07 22:49 | 45.35370 | 134.30103 | 36741 ft | 523 kts | 37° |
| 2026-05-07 22:50 | 45.41152 | 134.36377 | 36738 ft | 523 kts | 34° |
| 2026-05-07 22:50 | 45.47011 | 134.42516 | 36741 ft | 522 kts | 34° |
| 2026-05-07 22:51 | 45.52887 | 134.48645 | 36734 ft | 524 kts | 34° |
| 2026-05-07 22:51 | 45.58706 | 134.54736 | 36735 ft | 523 kts | 34° |
| 2026-05-07 22:52 | 45.64582 | 134.60916 | 36734 ft | 521 kts | 34° |
| 2026-05-07 22:52 | 45.70369 | 134.67023 | 36714 ft | 523 kts | 35° |
| 2026-05-07 22:53 | 45.76219 | 134.73216 | 36726 ft | 521 kts | 35° |
| 2026-05-07 22:53 | 45.82036 | 134.79395 | 36733 ft | 521 kts | 35° |
| 2026-05-07 22:54 | 45.87902 | 134.85565 | 36727 ft | 523 kts | 29° |
| 2026-05-07 22:54 | 45.94435 | 134.89731 | 36800 ft | 514 kts | 12° |
| 2026-05-07 22:55 | 46.01362 | 134.91862 | 36788 ft | 504 kts | 5° |
| 2026-05-07 22:55 | 46.08305 | 134.93451 | 36769 ft | 508 kts | 4° |
| 2026-05-07 22:56 | 46.15255 | 134.94873 | 36710 ft | 505 kts | 3° |
| 2026-05-07 22:56 | 46.22255 | 134.96167 | 36735 ft | 505 kts | 2° |
| 2026-05-07 22:57 | 46.29182 | 134.97337 | 36744 ft | 501 kts | 2° |
| 2026-05-07 22:57 | 46.36148 | 134.98413 | 36765 ft | 505 kts | 1° |
| 2026-05-07 22:58 | 46.43092 | 134.99409 | 36761 ft | 502 kts | 1° |
| 2026-05-07 22:58 | 46.50046 | 135.00337 | 36762 ft | 501 kts | 0° |
| 2026-05-07 22:59 | 46.56984 | 135.01202 | 36767 ft | 501 kts | 0° |
| 2026-05-07 22:59 | 46.63914 | 135.02023 | 36766 ft | 498 kts | 0° |
| 2026-05-07 23:00 | 46.70845 | 135.02805 | 36749 ft | 500 kts | 360° |
| 2026-05-07 23:00 | 46.77753 | 135.03551 | 36763 ft | 496 kts | 359° |
| 2026-05-07 23:01 | 46.84672 | 135.04272 | 36763 ft | 496 kts | 360° |
| 2026-05-07 23:01 | 46.91556 | 135.04970 | 36771 ft | 496 kts | 359° |
| 2026-05-07 23:02 | 46.98444 | 135.05653 | 36772 ft | 494 kts | 359° |
| 2026-05-07 23:02 | 47.05304 | 135.06322 | 36765 ft | 495 kts | 359° |
| 2026-05-07 23:03 | 47.12110 | 135.06982 | 36448 ft | 489 kts | 359° |
| 2026-05-07 23:03 | 47.15505 | 135.07310 | 35810 ft | 488 kts | 359° |
| 2026-05-07 23:03 | 47.18868 | 135.07631 | 35274 ft | 484 kts | 359° |
| 2026-05-07 23:03 | 47.22212 | 135.07950 | 34771 ft | 480 kts | 359° |
| 2026-05-07 23:04 | 47.25531 | 135.08266 | 34292 ft | 475 kts | 359° |
| 2026-05-07 23:04 | 47.28830 | 135.08581 | 33833 ft | 470 kts | 359° |
| 2026-05-07 23:04 | 47.32048 | 135.08882 | 33423 ft | 464 kts | 359° |
| 2026-05-07 23:04 | 47.35234 | 135.09170 | 33044 ft | 458 kts | 359° |
| 2026-05-07 23:05 | 47.38406 | 135.09454 | 32656 ft | 452 kts | 359° |
| 2026-05-07 23:05 | 47.41526 | 135.09735 | 32294 ft | 446 kts | 359° |
| 2026-05-07 23:05 | 47.44599 | 135.10014 | 31953 ft | 440 kts | 359° |
| 2026-05-07 23:05 | 47.47622 | 135.10290 | 31614 ft | 435 kts | 359° |
| 2026-05-07 23:06 | 47.50608 | 135.10568 | 31274 ft | 430 kts | 359° |
| 2026-05-07 23:06 | 47.53588 | 135.10847 | 30927 ft | 425 kts | 359° |
| 2026-05-07 23:06 | 47.56516 | 135.11124 | 30591 ft | 420 kts | 359° |
| 2026-05-07 23:06 | 47.59430 | 135.11401 | 30217 ft | 416 kts | 359° |
| 2026-05-07 23:07 | 47.62301 | 135.11675 | 29832 ft | 412 kts | 359° |
| 2026-05-07 23:07 | 47.65145 | 135.11943 | 29392 ft | 409 kts | 359° |
| 2026-05-07 23:07 | 47.67962 | 135.12212 | 28889 ft | 406 kts | 359° |
| 2026-05-07 23:07 | 47.70764 | 135.12483 | 28383 ft | 403 kts | 359° |
| 2026-05-07 23:08 | 47.73542 | 135.12753 | 27905 ft | 399 kts | 360° |
| 2026-05-07 23:08 | 47.76277 | 135.13020 | 27428 ft | 396 kts | 359° |
| 2026-05-07 23:08 | 47.79011 | 135.13290 | 26956 ft | 392 kts | 360° |
| 2026-05-07 23:08 | 47.81736 | 135.13557 | 26491 ft | 387 kts | 360° |
| 2026-05-07 23:09 | 47.84399 | 135.13820 | 26039 ft | 383 kts | 0° |
| 2026-05-07 23:09 | 47.87019 | 135.14076 | 25560 ft | 378 kts | 0° |
| 2026-05-07 23:09 | 47.89619 | 135.14336 | 25042 ft | 375 kts | 1° |
| 2026-05-07 23:09 | 47.92209 | 135.14594 | 24498 ft | 371 kts | 1° |
| 2026-05-07 23:10 | 47.94781 | 135.14848 | 23962 ft | 368 kts | 1° |
| 2026-05-07 23:10 | 47.97287 | 135.15097 | 23418 ft | 364 kts | 1° |
| 2026-05-07 23:10 | 47.99819 | 135.15352 | 22841 ft | 360 kts | 2° |
| 2026-05-07 23:10 | 48.02294 | 135.15604 | 22182 ft | 359 kts | 1° |
| 2026-05-07 23:11 | 48.04767 | 135.15857 | 21494 ft | 358 kts | 1° |
| 2026-05-07 23:11 | 48.07260 | 135.16113 | 20819 ft | 356 kts | 1° |
| 2026-05-07 23:11 | 48.09718 | 135.16363 | 20144 ft | 353 kts | 1° |
| 2026-05-07 23:11 | 48.12144 | 135.16611 | 19370 ft | 353 kts | 1° |
| 2026-05-07 23:12 | 48.14567 | 135.16853 | 18569 ft | 351 kts | 1° |
| 2026-05-07 23:12 | 48.16997 | 135.17096 | 17787 ft | 349 kts | 1° |
| 2026-05-07 23:12 | 48.19409 | 135.17342 | 17024 ft | 345 kts | 1° |
| 2026-05-07 23:12 | 48.21784 | 135.17584 | 16254 ft | 341 kts | 2° |
| 2026-05-07 23:13 | 48.24133 | 135.17827 | 15495 ft | 337 kts | 2° |
| 2026-05-07 23:13 | 48.26443 | 135.18066 | 14755 ft | 332 kts | 2° |
| 2026-05-07 23:13 | 48.28712 | 135.18303 | 14037 ft | 327 kts | 2° |
| 2026-05-07 23:13 | 48.30982 | 135.18541 | 13282 ft | 322 kts | 2° |
| 2026-05-07 23:14 | 48.33137 | 135.18765 | 12584 ft | 318 kts | 3° |
| 2026-05-07 23:14 | 48.35350 | 135.18997 | 11867 ft | 313 kts | 3° |
| 2026-05-07 23:14 | 48.37502 | 135.19223 | 11148 ft | 309 kts | 3° |
| 2026-05-07 23:14 | 48.39644 | 135.19449 | 10425 ft | 305 kts | 3° |
| 2026-05-07 23:15 | 48.41714 | 135.19669 | 9720 ft | 301 kts | 3° |
| 2026-05-07 23:15 | 48.43785 | 135.19888 | 9011 ft | 297 kts | 4° |
| 2026-05-07 23:15 | 48.45829 | 135.20105 | 8308 ft | 293 kts | 4° |
| 2026-05-07 23:15 | 48.47837 | 135.20317 | 7616 ft | 288 kts | 4° |
| 2026-05-07 23:16 | 48.49804 | 135.20529 | 6934 ft | 284 kts | 4° |
| 2026-05-07 23:16 | 48.51779 | 135.20756 | 6371 ft | 281 kts | 4° |
| 2026-05-07 23:16 | 48.53687 | 135.20952 | 6025 ft | 273 kts | 3° |
| 2026-05-07 23:16 | 48.55538 | 135.20976 | 5932 ft | 255 kts | 359° |
| 2026-05-07 23:17 | 48.57262 | 135.21030 | 5696 ft | 247 kts | 3° |
| 2026-05-07 23:17 | 48.58953 | 135.21161 | 5362 ft | 243 kts | 3° |
| 2026-05-07 23:17 | 48.60641 | 135.21295 | 5020 ft | 239 kts | 3° |
| 2026-05-07 23:17 | 48.62279 | 135.21419 | 4680 ft | 236 kts | 3° |
| 2026-05-07 23:18 | 48.63921 | 135.21533 | 4355 ft | 234 kts | 3° |
| 2026-05-07 23:18 | 48.65532 | 135.21642 | 4065 ft | 235 kts | 3° |
| 2026-05-07 23:18 | 48.67164 | 135.21753 | 3797 ft | 235 kts | 3° |
| 2026-05-07 23:18 | 48.68804 | 135.21857 | 3534 ft | 234 kts | 3° |
| 2026-05-07 23:19 | 48.70429 | 135.21956 | 3280 ft | 233 kts | 3° |
| 2026-05-07 23:19 | 48.72056 | 135.22047 | 3026 ft | 232 kts | 3° |
| 2026-05-07 23:19 | 48.73653 | 135.22235 | 2751 ft | 230 kts | 17° |
| 2026-05-07 23:19 | 48.75001 | 135.23436 | 2489 ft | 227 kts | 49° |
| 2026-05-07 23:20 | 48.75674 | 135.25543 | 2317 ft | 224 kts | 82° |
| 2026-05-07 23:20 | 48.75446 | 135.27844 | 2142 ft | 221 kts | 115° |
| 2026-05-07 23:20 | 48.74411 | 135.29532 | 1918 ft | 227 kts | 149° |
| 2026-05-07 23:20 | 48.72938 | 135.30243 | 1751 ft | 228 kts | 167° |
| 2026-05-07 23:21 | 48.71365 | 135.30672 | 1585 ft | 223 kts | 169° |
| 2026-05-07 23:21 | 48.69902 | 135.31045 | 1275 ft | 206 kts | 168° |
| 2026-05-07 23:21 | 48.68530 | 135.31395 | 892 ft | 196 kts | 168° |
| 2026-05-07 23:21 | 48.67211 | 135.31731 | 475 ft | 191 kts | 168° |
| 2026-05-07 23:22 | 48.66100 | 135.32016 | 139 ft | 187 kts | 169° |
| 2026-05-07 23:22 | 48.65327 | 135.32225 | 2402 ft | 181 kts | 169° |
| 2026-05-07 23:22 | 48.64074 | 135.32283 | 1995 ft | 183 kts | 195° |
| 2026-05-07 23:22 | 48.62964 | 135.31456 | 1806 ft | 175 kts | 207° |
| 2026-05-07 23:23 | 48.61930 | 135.30614 | 1825 ft | 155 kts | 207° |
| 2026-05-07 23:23 | 48.61023 | 135.29785 | 1528 ft | 156 kts | 219° |
| 2026-05-07 23:23 | 48.60267 | 135.28713 | 1062 ft | 143 kts | 223° |
| 2026-05-07 23:23 | 48.59520 | 135.27724 | 889 ft | 141 kts | 220° |
| 2026-05-07 23:24 | 48.58792 | 135.26732 | 1096 ft | 143 kts | 223° |
| 2026-05-07 23:24 | 48.58050 | 135.25711 | 1365 ft | 148 kts | 222° |
| 2026-05-07 23:24 | 48.57288 | 135.24669 | 1189 ft | 148 kts | 223° |
| 2026-05-07 23:24 | 48.56538 | 135.23653 | 811 ft | 143 kts | 222° |
| 2026-05-07 23:25 | 48.55963 | 135.22873 | 730 ft | 136 kts | 223° |
| 2026-05-07 23:25 | 48.55262 | 135.21872 | 598 ft | 141 kts | 224° |
| 2026-05-07 23:25 | 48.54507 | 135.20871 | 440 ft | 148 kts | 220° |
| 2026-05-07 23:25 | 48.53755 | 135.19852 | 261 ft | 137 kts | 221° |
| 2026-05-07 23:26 | 48.53115 | 135.19003 | 257 ft | 104 kts | 224° |
| 2026-05-07 23:26 | 48.52700 | 135.18436 | 257 ft | 60 kts | 222° |
| 2026-05-07 23:26 | 48.52473 | 135.18118 | 257 ft | 28 kts | 221° |
| 2026-05-07 23:26 | 48.52373 | 135.17982 | 257 ft | 20 kts | 221° |
| 2026-05-07 23:27 | 48.52301 | 135.17766 | 258 ft | 10 kts | 310° |
| 2026-05-07 23:27 | 48.52358 | 135.17671 | 260 ft | 13 kts | 312° |
| 2026-05-07 23:27 | 48.52429 | 135.17555 | 263 ft | 16 kts | 313° |
| 2026-05-07 23:28 | 48.52507 | 135.17430 | 265 ft | 5 kts | 297° |
| 2026-05-07 23:28 | 48.52501 | 135.17369 | 265 ft | 8 kts | 234° |
| 2026-05-07 23:28 | 48.52452 | 135.17290 | 264 ft | 4 kts | 225° |
| 2026-05-07 23:28 | 48.52445 | 135.17252 | 264 ft | 5 kts | 289° |
| 2026-05-07 23:29 | 48.52460 | 135.17194 | 264 ft | 4 kts | 298° |
| 2026-05-07 23:29 | 48.52470 | 135.17172 | 264 ft | 1 kts | 310° |
| 2026-05-07 23:29 | 48.52472 | 135.17168 | 264 ft | 0 kts | 310° |